Time;durP1;ratioP1;P1;durP2;ratioP2;P2;SDS_P1;SDS_P2;PMS_P1;PMS_P2;Temp;Humidity;BMP_temperature;BMP_pressure;BME280_temperature;BME280_humidity;BME280_pressure;Samples;Min_cycle;Max_cycle;Signal;HPM_P1;HPM_P2
2023/05/11 00:00:41;;;;;;;18.52;10.15;;;11.80;99.90;;;;;;5023424;28;20389;-62
2023/05/11 00:03:09;;;;;;;12.48;8.90;;;11.80;99.90;;;;;;5024318;28;20472;-62
2023/05/11 00:05:35;;;;;;;17.23;9.93;;;11.80;99.90;;;;;;5008071;28;20048;-62
2023/05/11 00:08:01;;;;;;;13.85;8.38;;;11.80;99.90;;;;;;5016879;28;20049;-62
2023/05/11 00:10:28;;;;;;;13.32;10.13;;;11.80;99.90;;;;;;5009080;28;20128;-62
2023/05/11 00:12:54;;;;;;;24.90;11.02;;;11.80;99.90;;;;;;5022961;28;20314;-61
2023/05/11 00:15:20;;;;;;;17.63;9.07;;;11.80;99.90;;;;;;5021360;28;20124;-62
2023/05/11 00:17:46;;;;;;;15.60;9.25;;;11.80;99.90;;;;;;5015586;28;20128;-61
2023/05/11 00:20:11;;;;;;;22.60;10.18;;;11.70;99.90;;;;;;5039953;28;20049;-61
2023/05/11 00:22:38;;;;;;;24.30;10.10;;;11.70;99.90;;;;;;5007851;28;20460;-62
2023/05/11 00:25:04;;;;;;;19.00;11.60;;;11.70;99.90;;;;;;5028512;28;20046;-61
2023/05/11 00:27:30;;;;;;;16.05;10.73;;;11.80;99.90;;;;;;5021036;28;20331;-61
2023/05/11 00:29:58;;;;;;;19.42;11.82;;;11.70;99.90;;;;;;4992134;28;20121;-62
2023/05/11 00:32:24;;;;;;;25.73;12.73;;;11.70;99.90;;;;;;5026140;28;20061;-62
2023/05/11 00:34:49;;;;;;;17.67;10.02;;;11.70;99.90;;;;;;5023466;28;20063;-62
2023/05/11 00:37:15;;;;;;;26.63;12.65;;;11.70;99.90;;;;;;5025262;28;20511;-62
2023/05/11 00:39:41;;;;;;;29.08;12.57;;;11.70;99.90;;;;;;5008151;28;20055;-61
2023/05/11 00:42:07;;;;;;;14.75;10.82;;;11.60;99.90;;;;;;5027933;28;20041;-62
2023/05/11 00:44:32;;;;;;;14.88;10.10;;;11.60;99.90;;;;;;5023475;28;20419;-62
2023/05/11 00:46:58;;;;;;;50.33;13.75;;;11.60;99.90;;;;;;5012360;28;20045;-61
2023/05/11 00:49:24;;;;;;;14.13;10.20;;;11.60;99.90;;;;;;5025567;28;20468;-60
2023/05/11 00:51:50;;;;;;;14.48;9.02;;;11.60;99.90;;;;;;5025468;28;20045;-62
2023/05/11 00:54:20;;;;;;;23.73;10.18;;;11.60;99.90;;;;;;5021990;28;20404;-62
2023/05/11 00:56:47;;;;;;;21.27;9.65;;;11.60;99.90;;;;;;5026449;28;20095;-62
2023/05/11 00:59:13;;;;;;;17.80;8.10;;;11.50;99.90;;;;;;5007560;28;20112;-60
2023/05/11 01:01:38;;;;;;;18.33;8.80;;;11.50;99.90;;;;;;5028313;28;20144;-63
2023/05/11 01:04:05;;;;;;;10.25;6.90;;;11.50;99.90;;;;;;5004470;28;20049;-59
2023/05/11 01:06:45;;;;;;;11.07;6.60;;;11.50;99.90;;;;;;5025460;28;20205;-62
2023/05/11 01:09:31;;;;;;;12.48;7.13;;;11.50;99.90;;;;;;5025358;28;20184;-62
2023/05/11 01:12:18;;;;;;;9.38;6.55;;;11.50;99.90;;;;;;5025114;28;20041;-62
2023/05/11 01:14:56;;;;;;;8.85;6.57;;;11.50;99.90;;;;;;5020216;28;20500;-61
2023/05/11 01:17:44;;;;;;;9.65;6.45;;;11.40;99.90;;;;;;5080043;22;20078;-63
2023/05/11 01:20:16;;;;;;;9.07;6.95;;;11.50;99.90;;;;;;5086781;28;20071;-62
2023/05/11 01:22:55;;;;;;;9.40;6.40;;;11.40;99.90;;;;;;5079223;28;20033;-62
2023/05/11 01:25:38;;;;;;;11.55;5.63;;;11.40;99.90;;;;;;5063295;28;20037;-64
2023/05/11 01:28:39;;;;;;;8.90;6.30;;;11.40;99.90;;;;;;5070212;28;20035;-63
2023/05/11 01:31:12;;;;;;;18.08;6.93;;;11.40;99.90;;;;;;5069842;28;20063;-62
2023/05/11 01:33:48;;;;;;;40.72;7.43;;;11.40;99.90;;;;;;5067518;28;20052;-62
2023/05/11 01:36:16;;;;;;;14.43;7.63;;;11.30;99.90;;;;;;5057248;28;20055;-62
2023/05/11 01:38:45;;;;;;;15.07;7.45;;;11.30;99.90;;;;;;5050595;28;20135;-63
2023/05/11 01:41:15;;;;;;;15.48;6.60;;;11.30;99.90;;;;;;5068285;28;20125;-62
2023/05/11 01:43:44;;;;;;;18.48;6.63;;;11.30;99.90;;;;;;5036604;28;20064;-62
2023/05/11 01:46:12;;;;;;;12.82;7.07;;;11.30;99.90;;;;;;5067826;28;20064;-63
2023/05/11 01:48:43;;;;;;;77.45;11.32;;;11.30;99.90;;;;;;5039519;28;20064;-62
2023/05/11 01:51:10;;;;;;;15.73;5.82;;;11.30;99.90;;;;;;5069114;28;20049;-62
2023/05/11 01:53:38;;;;;;;74.00;10.82;;;11.30;99.90;;;;;;5051698;28;20117;-63
2023/05/11 01:56:05;;;;;;;46.80;8.80;;;11.30;99.90;;;;;;5066436;28;20458;-62
2023/05/11 01:58:34;;;;;;;98.97;9.52;;;11.30;99.90;;;;;;5052646;28;20044;-63
2023/05/11 02:01:02;;;;;;;53.30;9.68;;;11.30;99.90;;;;;;5049920;28;20047;-62
2023/05/11 02:03:34;;;;;;;28.13;8.30;;;11.30;99.90;;;;;;5057541;28;20057;-62
2023/05/11 02:06:01;;;;;;;31.20;7.32;;;11.20;99.90;;;;;;5055395;28;20097;-61
2023/05/11 02:08:30;;;;;;;13.32;6.28;;;11.20;99.90;;;;;;5036928;28;20829;-63
2023/05/11 02:10:57;;;;;;;10.88;5.88;;;11.20;99.90;;;;;;5047338;28;20036;-63
2023/05/11 02:13:25;;;;;;;11.82;5.63;;;11.20;99.90;;;;;;5038601;28;20048;-62
2023/05/11 02:15:53;;;;;;;14.80;6.35;;;11.20;99.90;;;;;;5054069;28;20047;-62
2023/05/11 02:18:19;;;;;;;26.17;7.53;;;11.20;99.90;;;;;;5066224;28;20048;-63
2023/05/11 02:20:46;;;;;;;16.17;5.53;;;11.20;99.90;;;;;;5035958;28;20041;-62
2023/05/11 02:23:13;;;;;;;64.50;8.38;;;11.20;99.90;;;;;;5072098;28;20113;-62
2023/05/11 02:25:41;;;;;;;12.73;6.53;;;11.20;99.90;;;;;;5065930;28;20126;-63
2023/05/11 02:28:07;;;;;;;11.25;6.10;;;11.10;99.90;;;;;;5064233;28;20399;-62
2023/05/11 02:30:39;;;;;;;34.70;7.18;;;11.20;99.90;;;;;;5067787;28;20033;-62
2023/05/11 02:33:07;;;;;;;41.33;8.57;;;11.20;99.90;;;;;;5065894;28;20036;-62
2023/05/11 02:35:38;;;;;;;63.60;9.35;;;11.20;99.90;;;;;;5036732;28;20177;-63
2023/05/11 02:38:04;;;;;;;13.98;7.45;;;11.20;99.90;;;;;;5065973;28;21402;-60
2023/05/11 02:40:33;;;;;;;27.65;6.90;;;11.10;99.90;;;;;;5064045;28;20242;-64
2023/05/11 02:43:11;;;;;;;23.58;7.05;;;11.20;99.90;;;;;;5062080;28;20528;-62
2023/05/11 02:45:37;;;;;;;27.30;7.10;;;11.20;99.90;;;;;;5053442;28;20037;-61
2023/05/11 02:48:10;;;;;;;10.30;6.20;;;11.20;99.90;;;;;;5064892;28;20193;-62
2023/05/11 02:50:38;;;;;;;80.03;10.20;;;11.20;99.90;;;;;;5038674;28;20040;-63
2023/05/11 02:53:09;;;;;;;113.00;11.70;;;11.20;99.90;;;;;;5044146;28;20044;-62
2023/05/11 02:55:35;;;;;;;113.07;10.20;;;11.10;99.90;;;;;;5065141;28;20513;-62
2023/05/11 02:58:01;;;;;;;12.85;7.07;;;11.10;99.90;;;;;;5064069;28;20060;-62
2023/05/11 03:00:28;;;;;;;21.92;6.88;;;11.10;99.90;;;;;;5041492;28;20048;-62
2023/05/11 03:02:54;;;;;;;24.20;8.35;;;11.10;99.90;;;;;;5064712;28;20908;-61
2023/05/11 03:05:19;;;;;;;61.38;9.65;;;11.10;99.90;;;;;;5053087;28;20360;-62
2023/05/11 03:07:45;;;;;;;12.50;6.88;;;11.20;99.90;;;;;;5062667;28;20078;-61
2023/05/11 03:10:11;;;;;;;151.77;14.80;;;11.20;99.90;;;;;;5052048;28;20033;-61
2023/05/11 03:12:37;;;;;;;67.82;10.23;;;11.20;99.90;;;;;;5069619;28;20033;-62
2023/05/11 03:15:07;;;;;;;62.25;10.25;;;11.20;99.90;;;;;;5058420;28;20039;-62
2023/05/11 03:17:38;;;;;;;25.00;7.85;;;11.20;99.90;;;;;;5032235;28;20036;-62
2023/05/11 03:20:08;;;;;;;31.80;7.90;;;11.20;99.90;;;;;;5068836;28;20115;-61
2023/05/11 03:22:36;;;;;;;43.60;8.05;;;11.20;99.90;;;;;;5066254;28;20036;-62
2023/05/11 03:25:03;;;;;;;64.43;7.75;;;11.20;99.90;;;;;;5068123;28;20040;-63
2023/05/11 03:27:30;;;;;;;12.13;4.97;;;11.20;99.90;;;;;;5046767;28;20076;-62
2023/05/11 03:29:57;;;;;;;93.70;8.60;;;11.10;99.90;;;;;;5069714;28;20055;-62
2023/05/11 03:32:23;;;;;;;33.92;5.78;;;11.10;99.90;;;;;;5066074;28;20048;-60
2023/05/11 03:34:49;;;;;;;31.50;6.70;;;11.10;99.90;;;;;;5063803;28;20114;-61
2023/05/11 03:37:17;;;;;;;69.40;7.95;;;11.10;99.90;;;;;;5069463;28;20044;-61
2023/05/11 03:39:46;;;;;;;7.03;5.05;;;11.10;99.90;;;;;;5034691;28;20165;-61
2023/05/11 03:42:13;;;;;;;11.65;4.75;;;11.10;99.90;;;;;;5038947;28;20040;-62
2023/05/11 03:44:40;;;;;;;27.90;5.50;;;11.10;99.90;;;;;;5065902;28;20118;-61
2023/05/11 03:47:08;;;;;;;5.45;3.75;;;11.10;99.90;;;;;;5067627;28;20032;-62
2023/05/11 03:49:36;;;;;;;20.25;6.13;;;11.00;99.90;;;;;;5051946;28;20064;-62
2023/05/11 03:52:03;;;;;;;14.90;4.70;;;11.00;99.90;;;;;;5052551;28;20044;-62
2023/05/11 03:54:29;;;;;;;69.53;7.55;;;11.00;99.90;;;;;;5051876;28;20052;-63
2023/05/11 03:56:55;;;;;;;12.95;4.68;;;11.00;99.90;;;;;;5067019;28;20391;-61
2023/05/11 03:59:21;;;;;;;17.45;5.80;;;11.00;99.90;;;;;;5036318;28;20438;-62
2023/05/11 04:01:51;;;;;;;12.93;4.60;;;10.90;99.90;;;;;;5065194;28;20029;-62
2023/05/11 04:04:18;;;;;;;34.83;5.75;;;11.00;99.90;;;;;;5047699;28;20119;-62
2023/05/11 04:06:44;;;;;;;20.38;5.05;;;10.90;99.90;;;;;;5048371;28;21761;-62
2023/05/11 04:09:09;;;;;;;24.25;7.10;;;10.90;99.90;;;;;;5062648;28;20044;-63
2023/05/11 04:11:38;;;;;;;7.03;4.63;;;10.90;99.90;;;;;;5067542;28;20032;-61
2023/05/11 04:14:04;;;;;;;6.05;4.00;;;10.90;99.90;;;;;;5067645;28;20098;-62
2023/05/11 04:16:30;;;;;;;9.05;5.07;;;10.80;99.90;;;;;;5066430;28;20440;-62
2023/05/11 04:18:56;;;;;;;6.93;4.10;;;10.80;99.90;;;;;;5048760;28;20616;-59
2023/05/11 04:21:21;;;;;;;8.38;4.13;;;10.80;99.90;;;;;;5057505;28;20039;-62
2023/05/11 04:23:47;;;;;;;8.43;4.40;;;10.90;99.90;;;;;;5052306;28;20094;-61
2023/05/11 04:26:13;;;;;;;9.98;4.68;;;10.90;99.90;;;;;;5036123;28;20570;-62
2023/05/11 04:28:38;;;;;;;13.45;4.97;;;10.90;99.90;;;;;;5045814;28;20044;-63
2023/05/11 04:31:04;;;;;;;18.88;5.97;;;10.90;99.90;;;;;;5053091;28;20033;-62
2023/05/11 04:33:30;;;;;;;43.47;7.50;;;10.90;99.90;;;;;;5049940;28;20568;-62
2023/05/11 04:35:57;;;;;;;13.35;5.75;;;10.90;99.90;;;;;;5051611;28;20032;-62
2023/05/11 04:38:23;;;;;;;10.02;5.75;;;10.90;99.90;;;;;;5065717;28;20048;-64
2023/05/11 04:40:49;;;;;;;20.27;6.00;;;11.00;99.90;;;;;;5050879;28;20096;-62
2023/05/11 04:43:15;;;;;;;19.17;6.75;;;11.00;99.90;;;;;;5064470;28;20066;-61
2023/05/11 04:45:49;;;;;;;52.00;6.82;;;11.00;99.90;;;;;;5066808;28;20436;-63
2023/05/11 04:48:15;;;;;;;;;;;11.00;99.90;;;;;;5053378;28;20640;-62
2023/05/11 04:50:41;;;;;;;15.50;5.72;;;11.00;99.90;;;;;;5033053;28;19924;-60
2023/05/11 04:53:08;;;;;;;42.08;7.68;;;10.90;99.90;;;;;;5066677;28;20048;-62
2023/05/11 04:55:34;;;;;;;21.92;5.72;;;11.00;99.90;;;;;;5065068;28;20039;-62
2023/05/11 04:58:00;;;;;;;10.10;5.70;;;11.00;99.90;;;;;;5062341;28;20377;-61
2023/05/11 05:00:25;;;;;;;48.13;6.72;;;11.00;99.90;;;;;;5039623;28;20051;-61
2023/05/11 05:02:51;;;;;;;17.92;6.05;;;11.00;99.90;;;;;;5066042;28;20391;-62
2023/05/11 05:05:17;;;;;;;24.38;5.25;;;11.00;99.90;;;;;;5059528;28;20047;-62
2023/05/11 05:07:43;;;;;;;16.33;4.90;;;11.00;99.90;;;;;;5033477;28;20071;-62
2023/05/11 05:10:11;;;;;;;9.23;4.57;;;11.00;99.90;;;;;;5076280;28;20623;-63
2023/05/11 05:12:40;;;;;;;19.05;5.43;;;10.90;99.90;;;;;;5052127;28;20068;-61
2023/05/11 05:15:06;;;;;;;12.50;4.97;;;11.00;99.90;;;;;;5053036;28;20048;-61
2023/05/11 05:17:32;;;;;;;11.18;4.97;;;11.00;99.90;;;;;;5068865;28;20042;-62
2023/05/11 05:19:58;;;;;;;10.25;4.20;;;11.00;99.90;;;;;;5054907;28;20505;-62
2023/05/11 05:22:25;;;;;;;6.28;4.10;;;11.00;99.90;;;;;;5057465;28;20123;-62
2023/05/11 05:24:50;;;;;;;6.63;4.25;;;11.00;99.90;;;;;;5055599;28;20052;-63
2023/05/11 05:27:16;;;;;;;6.38;3.60;;;11.00;99.90;;;;;;5067288;28;20043;-62
2023/05/11 05:29:42;;;;;;;5.47;3.47;;;11.10;99.90;;;;;;5058745;28;20070;-63
2023/05/11 05:32:07;;;;;;;5.32;3.05;;;11.10;99.90;;;;;;5051684;28;20056;-62
2023/05/11 05:34:33;;;;;;;6.60;4.22;;;11.20;99.90;;;;;;5045239;28;20044;-62
2023/05/11 05:36:59;;;;;;;7.70;4.18;;;11.20;99.90;;;;;;5068647;28;20112;-62
2023/05/11 05:39:25;;;;;;;9.82;4.80;;;11.20;99.90;;;;;;5051822;28;20480;-62
2023/05/11 05:41:51;;;;;;;11.48;5.00;;;11.10;99.90;;;;;;5072142;28;20040;-61
2023/05/11 05:44:17;;;;;;;4.70;3.67;;;11.10;99.90;;;;;;5060263;28;20441;-63
2023/05/11 05:46:42;;;;;;;9.98;4.80;;;11.20;99.90;;;;;;5068077;28;20120;-62
2023/05/11 05:49:11;;;;;;;6.57;4.70;;;11.20;99.90;;;;;;5029839;28;20040;-62
2023/05/11 05:51:36;;;;;;;7.65;4.63;;;11.20;99.90;;;;;;5069073;28;20082;-62
2023/05/11 05:54:02;;;;;;;8.57;4.80;;;11.30;99.90;;;;;;5034452;28;20037;-61
2023/05/11 05:56:28;;;;;;;8.27;4.80;;;11.30;99.90;;;;;;5038187;28;20040;-62
2023/05/11 05:58:54;;;;;;;17.50;5.82;;;11.40;99.90;;;;;;5047873;28;20040;-63
2023/05/11 06:01:21;;;;;;;9.30;4.60;;;11.40;99.90;;;;;;5063708;28;20032;-61
2023/05/11 06:03:47;;;;;;;12.50;4.68;;;11.40;99.90;;;;;;5055167;28;20040;-62
2023/05/11 06:06:13;;;;;;;7.13;4.30;;;11.40;99.90;;;;;;5042286;28;20045;-63
2023/05/11 06:08:39;;;;;;;8.55;4.82;;;11.40;99.90;;;;;;5046973;28;20457;-62
2023/05/11 06:11:04;;;;;;;6.78;4.40;;;11.50;99.90;;;;;;5064295;28;20627;-62
2023/05/11 06:13:30;;;;;;;6.43;4.40;;;11.50;99.90;;;;;;5056428;28;20048;-62
2023/05/11 06:15:56;;;;;;;6.82;4.00;;;11.50;99.90;;;;;;5045013;28;20473;-62
2023/05/11 06:18:21;;;;;;;5.22;3.72;;;11.50;99.90;;;;;;5062773;28;20098;-61
2023/05/11 06:20:47;;;;;;;5.13;3.53;;;11.60;99.90;;;;;;5062070;28;20029;-64
2023/05/11 06:23:13;;;;;;;5.65;3.63;;;11.60;99.90;;;;;;5030630;28;20096;-62
2023/05/11 06:25:39;;;;;;;7.18;3.63;;;11.70;99.90;;;;;;5048577;28;20040;-63
2023/05/11 06:28:05;;;;;;;4.47;2.83;;;11.80;99.90;;;;;;5033866;28;20048;-64
2023/05/11 06:30:30;;;;;;;5.20;3.30;;;11.80;99.90;;;;;;5020698;28;20462;-62
2023/05/11 06:32:56;;;;;;;5.97;3.00;;;11.90;99.90;;;;;;5049945;28;20094;-62
2023/05/11 06:35:22;;;;;;;4.30;2.85;;;11.90;99.90;;;;;;5006948;28;20051;-63
2023/05/11 06:37:51;;;;;;;3.38;2.22;;;11.90;99.90;;;;;;5064371;28;20043;-62
2023/05/11 06:40:19;;;;;;;4.63;3.13;;;11.90;99.90;;;;;;5064839;28;20029;-62
2023/05/11 06:42:45;;;;;;;4.07;2.53;;;12.00;99.90;;;;;;5064447;28;20040;-62
2023/05/11 06:45:11;;;;;;;4.15;2.90;;;12.00;99.90;;;;;;5047295;28;20054;-61
2023/05/11 06:47:38;;;;;;;3.35;2.47;;;12.00;99.90;;;;;;5064688;28;20037;-62
2023/05/11 06:50:04;;;;;;;3.78;2.63;;;12.10;99.90;;;;;;5053050;28;20036;-62
2023/05/11 06:52:30;;;;;;;5.50;3.00;;;12.10;99.90;;;;;;5064765;28;20050;-63
2023/05/11 06:54:56;;;;;;;3.22;2.35;;;12.10;99.90;;;;;;5050822;28;20119;-62
2023/05/11 06:57:22;;;;;;;3.72;2.28;;;12.20;99.90;;;;;;5049483;28;20551;-62
2023/05/11 06:59:48;;;;;;;2.88;2.13;;;12.20;99.90;;;;;;5062134;28;20090;-62
2023/05/11 07:02:13;;;;;;;3.15;2.35;;;12.20;99.90;;;;;;5053920;28;20463;-62
2023/05/11 07:04:39;;;;;;;5.03;2.78;;;12.20;99.90;;;;;;5047632;28;20048;-61
2023/05/11 07:07:10;;;;;;;4.40;3.30;;;12.20;99.90;;;;;;5067276;28;20065;-63
2023/05/11 07:09:36;;;;;;;3.75;2.78;;;12.10;99.90;;;;;;5063390;28;20396;-62
2023/05/11 07:12:02;;;;;;;3.28;2.15;;;12.10;99.90;;;;;;5066358;28;20041;-63
2023/05/11 07:14:28;;;;;;;3.10;2.42;;;12.10;99.90;;;;;;5064963;28;20101;-62
2023/05/11 07:16:54;;;;;;;2.95;2.25;;;12.10;99.90;;;;;;5050668;28;20127;-62
2023/05/11 07:19:19;;;;;;;3.25;2.42;;;12.10;99.90;;;;;;5062546;28;20041;-62
2023/05/11 07:21:45;;;;;;;4.57;3.20;;;12.10;99.90;;;;;;5064794;28;20105;-62
2023/05/11 07:24:11;;;;;;;3.75;3.03;;;12.10;99.90;;;;;;5050826;28;20048;-62
2023/05/11 07:26:37;;;;;;;5.28;3.00;;;12.20;99.90;;;;;;5052546;28;20045;-61
2023/05/11 07:29:03;;;;;;;5.03;3.00;;;12.20;99.90;;;;;;5065458;28;20052;-62
2023/05/11 07:31:29;;;;;;;4.18;3.10;;;12.30;99.90;;;;;;5065384;28;20047;-62
2023/05/11 07:33:55;;;;;;;4.15;2.67;;;12.30;99.90;;;;;;5034551;28;20119;-62
2023/05/11 07:36:21;;;;;;;3.00;2.20;;;12.40;99.90;;;;;;5050040;28;20407;-61
2023/05/11 07:38:49;;;;;;;4.00;2.60;;;12.40;99.90;;;;;;5051150;28;20040;-61
2023/05/11 07:41:16;;;;;;;3.20;2.20;;;12.40;99.90;;;;;;5062131;28;20032;-64
2023/05/11 07:43:42;;;;;;;2.22;1.67;;;12.50;99.90;;;;;;5063310;28;20043;-62
2023/05/11 07:46:07;;;;;;;3.42;2.33;;;12.50;99.90;;;;;;5049063;28;20626;-64
2023/05/11 07:48:33;;;;;;;3.28;2.55;;;12.60;99.90;;;;;;5063343;28;20129;-64
2023/05/11 07:51:00;;;;;;;3.42;2.35;;;12.60;99.90;;;;;;5068955;28;20040;-64
2023/05/11 07:53:26;;;;;;;4.45;2.90;;;12.70;99.90;;;;;;5062351;28;20725;-62
2023/05/11 07:55:53;;;;;;;4.00;2.92;;;12.70;99.90;;;;;;5030840;28;20041;-64
2023/05/11 07:58:19;;;;;;;5.40;3.47;;;12.70;99.90;;;;;;5065422;28;20087;-62
2023/05/11 08:00:44;;;;;;;4.80;3.97;;;12.80;99.90;;;;;;5069094;28;20150;-62
2023/05/11 08:03:10;;;;;;;6.63;5.07;;;12.90;99.90;;;;;;5065244;28;20163;-62
2023/05/11 08:05:36;;;;;;;6.28;4.43;;;12.90;99.90;;;;;;5050151;28;20412;-63
2023/05/11 08:08:03;;;;;;;6.82;4.25;;;12.90;99.90;;;;;;5063141;28;20044;-61
2023/05/11 08:10:30;;;;;;;6.78;4.72;;;12.90;99.90;;;;;;5069878;28;20564;-63
2023/05/11 08:12:57;;;;;;;6.15;4.95;;;13.00;99.90;;;;;;5067590;28;20032;-63
2023/05/11 08:15:22;;;;;;;7.55;5.13;;;13.10;99.90;;;;;;5053596;28;20455;-61
2023/05/11 08:17:48;;;;;;;7.38;5.15;;;13.00;99.90;;;;;;5071962;28;20067;-61
2023/05/11 08:20:14;;;;;;;7.45;5.78;;;12.90;99.90;;;;;;5065949;28;20061;-61
2023/05/11 08:22:40;;;;;;;7.40;5.80;;;12.90;99.90;;;;;;5036371;28;20047;-60
2023/05/11 08:25:06;;;;;;;8.32;5.70;;;12.90;99.90;;;;;;5050415;28;20076;-61
2023/05/11 08:27:32;;;;;;;9.15;5.90;;;12.90;99.90;;;;;;5047838;28;20680;-60
2023/05/11 08:29:58;;;;;;;9.55;6.65;;;12.90;99.90;;;;;;5065393;28;20093;-60
2023/05/11 08:32:24;;;;;;;11.00;8.15;;;12.90;99.90;;;;;;5055759;28;20041;-60
2023/05/11 08:34:52;;;;;;;12.32;8.27;;;12.90;99.90;;;;;;5061568;28;20112;-60
2023/05/11 08:37:18;;;;;;;10.77;6.78;;;12.80;99.90;;;;;;5044713;28;20037;-61
2023/05/11 08:39:47;;;;;;;10.52;7.80;;;12.80;99.90;;;;;;5070715;28;20025;-61
2023/05/11 08:42:15;;;;;;;14.10;9.30;;;12.90;99.90;;;;;;5073375;28;20036;-61
2023/05/11 08:44:43;;;;;;;11.95;8.90;;;12.90;99.90;;;;;;5049148;28;20048;-61
2023/05/11 08:47:10;;;;;;;18.17;11.38;;;12.90;99.90;;;;;;5053023;28;20490;-61
2023/05/11 08:49:36;;;;;;;15.80;9.98;;;12.90;99.90;;;;;;5047696;28;20048;-63
2023/05/11 08:52:04;;;;;;;18.33;10.63;;;12.90;99.90;;;;;;5049128;28;20592;-61
2023/05/11 08:54:33;;;;;;;18.60;10.82;;;12.90;99.90;;;;;;5050727;28;20059;-61
2023/05/11 08:57:00;;;;;;;20.50;10.65;;;12.90;99.90;;;;;;5065280;28;20045;-61
2023/05/11 08:59:27;;;;;;;22.27;12.35;;;12.90;99.90;;;;;;5066004;28;20029;-61
2023/05/11 09:01:55;;;;;;;23.83;11.38;;;12.90;99.90;;;;;;5066150;28;20037;-61
2023/05/11 09:04:23;;;;;;;24.80;11.98;;;12.90;99.90;;;;;;5046687;28;20043;-61
2023/05/11 09:06:50;;;;;;;25.40;10.90;;;12.90;99.90;;;;;;5048083;28;20181;-61
2023/05/11 09:09:17;;;;;;;21.30;11.05;;;12.90;99.90;;;;;;5046977;28;20072;-61
2023/05/11 09:11:44;;;;;;;18.83;9.70;;;13.00;99.90;;;;;;5052808;28;20049;-61
2023/05/11 09:14:11;;;;;;;21.55;10.40;;;13.00;99.90;;;;;;5050715;28;20056;-62
2023/05/11 09:16:37;;;;;;;19.75;9.30;;;13.10;99.90;;;;;;5068996;28;20115;-62
2023/05/11 09:19:03;;;;;;;20.30;9.55;;;13.10;99.90;;;;;;5051082;28;20518;-62
2023/05/11 09:21:30;;;;;;;15.95;8.20;;;13.20;99.90;;;;;;5051027;28;20039;-62
2023/05/11 09:24:03;;;;;;;17.08;8.77;;;13.30;99.90;;;;;;5065989;28;20044;-62
2023/05/11 09:26:32;;;;;;;19.42;9.35;;;13.30;99.90;;;;;;5049433;28;20060;-61
2023/05/11 09:28:58;;;;;;;17.08;9.20;;;13.30;99.90;;;;;;5073988;28;20107;-63
2023/05/11 09:31:44;;;;;;;17.60;9.63;;;13.30;99.90;;;;;;5049422;28;20040;-63
2023/05/11 09:34:36;;;;;;;18.60;9.70;;;13.30;99.90;;;;;;5062436;28;20127;-60
2023/05/11 09:37:05;;;;;;;15.35;8.48;;;13.40;99.90;;;;;;5028503;28;20055;-63
2023/05/11 09:39:35;;;;;;;18.45;9.80;;;13.40;99.90;;;;;;5048967;28;20045;-61
2023/05/11 09:42:19;;;;;;;18.13;9.65;;;13.50;99.90;;;;;;5048598;28;20052;-61
2023/05/11 09:44:45;;;;;;;;;;;13.50;99.90;;;;;;5070235;28;20074;-63
2023/05/11 09:47:20;;;;;;;18.45;10.10;;;13.50;99.90;;;;;;5017480;28;19928;-63
2023/05/11 09:49:46;;;;;;;16.73;9.73;;;13.50;99.90;;;;;;5064885;28;20040;-61
2023/05/11 09:52:14;;;;;;;17.98;10.85;;;13.50;99.90;;;;;;5064592;28;20509;-61
2023/05/11 09:54:48;;;;;;;15.68;10.10;;;13.60;99.90;;;;;;5035348;28;20044;-61
2023/05/11 09:57:32;;;;;;;13.43;8.82;;;13.70;99.90;;;;;;5048290;28;20045;-63
2023/05/11 09:59:59;;;;;;;12.50;8.35;;;13.70;99.90;;;;;;5044839;28;20045;-61
2023/05/11 10:02:28;;;;;;;13.18;8.35;;;13.80;99.90;;;;;;5064687;28;20040;-60
2023/05/11 10:04:55;;;;;;;11.75;8.48;;;13.80;99.90;;;;;;5034065;28;20039;-60
2023/05/11 10:07:34;;;;;;;11.02;7.82;;;14.00;99.90;;;;;;5046212;28;20041;-62
2023/05/11 10:10:05;;;;;;;9.45;7.18;;;14.10;99.90;;;;;;5050507;28;20050;-60
2023/05/11 10:12:32;;;;;;;9.70;6.88;;;14.20;99.90;;;;;;5048187;28;20420;-59
2023/05/11 10:15:03;;;;;;;8.45;7.22;;;14.30;99.90;;;;;;5047410;28;20055;-60
2023/05/11 10:17:30;;;;;;;8.25;6.28;;;14.50;99.90;;;;;;5065625;28;20036;-62
2023/05/11 10:19:57;;;;;;;7.30;6.35;;;14.50;99.90;;;;;;5068673;28;20056;-60
2023/05/11 10:22:27;;;;;;;8.57;6.60;;;14.60;99.90;;;;;;5048090;28;20044;-60
2023/05/11 10:24:55;;;;;;;8.32;6.82;;;14.80;99.90;;;;;;5050954;28;20529;-60
2023/05/11 10:27:21;;;;;;;8.43;6.72;;;15.00;99.90;;;;;;5046142;28;20101;-61
2023/05/11 10:29:48;;;;;;;9.07;7.00;;;15.10;99.90;;;;;;5045333;28;20047;-61
2023/05/11 10:32:16;;;;;;;7.15;6.32;;;15.30;99.90;;;;;;5040739;28;20222;-62
2023/05/11 10:34:43;;;;;;;8.55;7.45;;;15.30;99.90;;;;;;5063010;28;20101;-60
2023/05/11 10:37:08;;;;;;;9.63;8.57;;;15.30;99.90;;;;;;5047297;28;20040;-60
2023/05/11 10:39:38;;;;;;;8.95;7.50;;;15.40;99.90;;;;;;5066333;28;20582;-60
2023/05/11 10:42:11;;;;;;;9.40;8.50;;;15.40;99.90;;;;;;5049331;28;20037;-60
2023/05/11 10:45:00;;;;;;;9.35;7.32;;;15.40;99.90;;;;;;5067489;28;20044;-62
2023/05/11 10:48:22;;;;;;;11.88;7.70;;;15.50;99.90;;;;;;5062609;28;20666;-60
2023/05/11 10:51:11;;;;;;;11.18;8.02;;;15.40;99.90;;;;;;4995839;28;20046;-60
2023/05/11 10:53:41;;;;;;;9.05;7.55;;;15.50;99.90;;;;;;5064083;28;20491;-63
2023/05/11 10:56:29;;;;;;;9.93;8.40;;;15.60;99.90;;;;;;5050228;28;20044;-60
2023/05/11 10:59:13;;;;;;;10.32;8.60;;;15.80;99.90;;;;;;5063172;28;20162;-59
2023/05/11 11:01:41;;;;;;;9.77;8.73;;;16.00;99.90;;;;;;5045684;28;20090;-60
2023/05/11 11:04:11;;;;;;;12.63;9.10;;;16.20;99.90;;;;;;5065137;28;20591;-61
2023/05/11 11:06:43;;;;;;;10.25;8.38;;;16.30;99.90;;;;;;5066385;28;20123;-61
2023/05/11 11:09:14;;;;;;;10.60;8.70;;;16.40;99.90;;;;;;5065557;28;20502;-61
2023/05/11 11:11:44;;;;;;;11.52;8.88;;;16.30;99.90;;;;;;5070578;28;20040;-63
2023/05/11 11:14:11;;;;;;;10.27;8.93;;;16.40;99.90;;;;;;5046723;28;20084;-60
2023/05/11 11:16:38;;;;;;;12.68;10.73;;;16.40;99.90;;;;;;5024949;28;20041;-61
2023/05/11 11:19:29;;;;;;;12.65;9.63;;;16.50;99.90;;;;;;5029092;28;20040;-61
2023/05/11 11:22:01;;;;;;;11.30;8.90;;;16.50;99.90;;;;;;5067139;28;20036;-61
2023/05/11 11:24:36;;;;;;;9.30;8.30;;;16.50;99.90;;;;;;5050110;28;20048;-61
2023/05/11 11:27:03;;;;;;;12.35;9.32;;;16.50;99.90;;;;;;5036928;28;20376;-61
2023/05/11 11:29:33;;;;;;;13.20;10.95;;;16.50;99.90;;;;;;5045596;28;20403;-63
2023/05/11 11:32:18;;;;;;;12.52;9.57;;;16.60;99.90;;;;;;5070184;28;20502;-63
2023/05/11 11:34:45;;;;;;;11.77;9.98;;;16.70;99.90;;;;;;5063729;28;20048;-62
2023/05/11 11:37:13;;;;;;;160.65;71.68;;;16.70;99.90;;;;;;5061772;28;20078;-61
2023/05/11 11:39:42;;;;;;;40.80;20.30;;;16.80;99.90;;;;;;5065140;28;20153;-63
2023/05/11 11:42:16;;;;;;;12.95;9.00;;;16.80;99.90;;;;;;5068234;28;20047;-61
2023/05/11 11:44:43;;;;;;;8.40;7.45;;;16.70;99.90;;;;;;5063968;28;20064;-61
2023/05/11 11:47:19;;;;;;;7.72;6.78;;;16.60;99.90;;;;;;5051669;28;20040;-59
2023/05/11 11:49:49;;;;;;;8.18;7.38;;;16.50;99.90;;;;;;5059847;28;20041;-61
2023/05/11 11:52:27;;;;;;;9.18;6.35;;;16.60;99.90;;;;;;5047201;28;20483;-63
2023/05/11 11:54:55;;;;;;;10.63;7.72;;;16.90;99.90;;;;;;5043415;28;20033;-62
2023/05/11 11:57:32;;;;;;;9.52;6.85;;;17.10;99.90;;;;;;5067424;28;20101;-63
2023/05/11 12:00:12;;;;;;;8.27;7.20;;;17.20;99.90;;;;;;5041385;28;20036;-66
2023/05/11 12:02:42;;;;;;;7.28;6.53;;;17.40;99.90;;;;;;5030640;28;20039;-62
2023/05/11 12:05:17;;;;;;;7.00;6.32;;;17.50;99.90;;;;;;5035583;28;20257;-62
2023/05/11 12:07:45;;;;;;;6.78;5.97;;;17.40;99.90;;;;;;5045661;28;20036;-61
2023/05/11 12:10:16;;;;;;;7.70;6.25;;;17.40;99.90;;;;;;5035468;28;20041;-64
2023/05/11 12:12:50;;;;;;;6.70;5.63;;;17.30;99.90;;;;;;5048217;28;20048;-62
2023/05/11 12:15:26;;;;;;;6.78;6.18;;;17.40;99.90;;;;;;5063101;28;20044;-61
2023/05/11 12:17:51;;;;;;;7.22;5.78;;;17.60;99.90;;;;;;5045164;28;20173;-62
2023/05/11 12:20:19;;;;;;;7.72;6.18;;;17.80;99.90;;;;;;5043252;28;20104;-65
2023/05/11 12:22:45;;;;;;;7.50;6.28;;;17.80;99.90;;;;;;5030578;28;20441;-62
2023/05/11 12:25:13;;;;;;;7.85;6.57;;;17.90;99.90;;;;;;5045328;28;20514;-62
2023/05/11 12:27:54;;;;;;;7.90;6.22;;;18.00;99.90;;;;;;5044109;28;20046;-60
2023/05/11 12:30:28;;;;;;;6.65;5.95;;;18.10;99.90;;;;;;5051389;28;20397;-62
2023/05/11 12:32:54;;;;;;;7.28;6.57;;;18.20;99.90;;;;;;5067644;28;20093;-60
2023/05/11 12:35:24;;;;;;;6.55;5.93;;;18.30;99.90;;;;;;5050209;28;20041;-62
2023/05/11 12:37:50;;;;;;;7.18;6.53;;;18.30;99.90;;;;;;5044940;28;20032;-60
2023/05/11 12:40:16;;;;;;;6.65;5.60;;;18.20;99.90;;;;;;5031108;28;20040;-59
2023/05/11 12:42:53;;;;;;;6.00;5.40;;;18.10;99.90;;;;;;5062627;28;20043;-61
2023/05/11 12:45:21;;;;;;;6.97;4.97;;;18.20;99.90;;;;;;5063539;28;20052;-64
2023/05/11 12:47:48;;;;;;;5.45;4.93;;;18.20;99.90;;;;;;5047321;28;20487;-63